createdAt,value
2019-04-11T00:02:31.002Z,7.67
2019-04-11T00:04:58.760Z,7.10
2019-04-11T00:07:25.348Z,7.37
2019-04-11T00:09:51.620Z,10.70
2019-04-11T00:12:18.731Z,10.13
2019-04-11T00:14:45.761Z,8.23
2019-04-11T00:17:14.008Z,7.50
2019-04-11T00:19:40.294Z,8.87
2019-04-11T00:22:06.536Z,9.73
2019-04-11T00:24:32.810Z,6.43
2019-04-11T00:27:00.294Z,6.80
2019-04-11T00:29:26.673Z,8.23
2019-04-11T00:31:52.944Z,12.40
2019-04-11T00:34:19.204Z,7.07
2019-04-11T00:36:46.370Z,8.30
2019-04-11T00:39:13.227Z,10.07
2019-04-11T00:41:39.795Z,14.00
2019-04-11T00:44:06.355Z,7.17
2019-04-11T00:46:32.876Z,7.23
2019-04-11T00:48:59.808Z,9.10
2019-04-11T00:51:26.145Z,9.23
2019-04-11T00:53:52.423Z,7.20
2019-04-11T00:56:19.724Z,8.30
2019-04-11T00:58:46.302Z,6.93
2019-04-11T01:01:13.494Z,7.13
2019-04-11T01:03:39.734Z,8.30
2019-04-11T01:06:05.983Z,9.20
2019-04-11T01:08:32.250Z,8.17
2019-04-11T01:10:59.374Z,10.83
2019-04-11T01:13:26.189Z,8.33
2019-04-11T01:15:57.005Z,8.33
2019-04-11T01:18:23.294Z,6.83
2019-04-11T01:20:49.567Z,8.77
2019-04-11T01:23:15.889Z,13.50
2019-04-11T01:25:42.287Z,10.43
2019-04-11T01:28:08.566Z,8.33
2019-04-11T01:30:42.993Z,7.73
2019-04-11T01:33:09.243Z,8.60
2019-04-11T01:35:35.496Z,8.03
2019-04-11T01:38:01.960Z,6.83
2019-04-11T01:40:28.243Z,7.57
2019-04-11T01:42:55.499Z,9.10
2019-04-11T01:45:23.655Z,6.83
2019-04-11T01:47:51.819Z,8.23
2019-04-11T01:50:20.935Z,9.87
2019-04-11T01:52:47.348Z,8.07
2019-04-11T01:55:14.407Z,5.57
2019-04-11T01:57:43.112Z,9.97
2019-04-11T02:00:12.226Z,7.37
2019-04-11T02:02:50.712Z,7.70
2019-04-11T02:05:29.267Z,6.37
2019-04-11T02:07:55.678Z,9.50
2019-04-11T02:10:21.949Z,8.80
2019-04-11T02:12:48.211Z,8.00
2019-04-11T02:15:14.514Z,10.50
2019-04-11T02:17:41.146Z,8.70
2019-04-11T02:20:07.550Z,8.23
2019-04-11T02:22:34.742Z,8.80
2019-04-11T02:25:20.528Z,6.80
2019-04-11T02:27:46.980Z,5.87
2019-04-11T02:30:14.427Z,7.90
2019-04-11T02:32:42.891Z,7.30
2019-04-11T02:35:11.135Z,8.17
2019-04-11T02:37:39.784Z,7.30
2019-04-11T02:40:07.635Z,8.33
2019-04-11T02:42:35.152Z,8.00
2019-04-11T02:45:19.608Z,8.73
2019-04-11T02:47:37.228Z,7.57
2019-04-11T02:50:03.663Z,7.77
2019-04-11T02:52:31.208Z,6.90
2019-04-11T02:54:57.699Z,7.13
2019-04-11T02:57:25.660Z,8.67
2019-04-11T02:59:53.881Z,7.37
2019-04-11T03:02:21.490Z,8.53
2019-04-11T03:04:48.391Z,8.93
2019-04-11T03:07:16.397Z,7.93
2019-04-11T03:09:44.074Z,9.23
2019-04-11T03:12:13.287Z,11.47
2019-04-11T03:15:02.270Z,8.13
2019-04-11T03:17:16.103Z,10.27
2019-04-11T03:19:47.633Z,9.80
2019-04-11T03:22:05.629Z,10.73
2019-04-11T03:24:35.218Z,10.20
2019-04-11T03:27:04.450Z,11.03
2019-04-11T03:29:29.336Z,14.47
2019-04-11T03:32:37.104Z,9.70
2019-04-11T03:35:09.515Z,14.57
2019-04-11T03:37:24.188Z,9.97
2019-04-11T03:39:43.865Z,9.10
2019-04-11T03:42:04.054Z,11.57
2019-04-11T03:44:24.121Z,7.80
2019-04-11T03:47:01.266Z,9.13
2019-04-11T03:49:24.954Z,13.27
2019-04-11T03:51:43.624Z,9.93
2019-04-11T03:54:11.603Z,9.03
2019-04-11T03:56:38.981Z,12.57
2019-04-11T03:59:06.715Z,10.73
2019-04-11T04:01:35.561Z,9.57
2019-04-11T04:04:02.810Z,13.67
2019-04-11T04:06:31.035Z,11.70
2019-04-11T04:08:58.442Z,11.17
2019-04-11T04:11:27.729Z,13.00
2019-04-11T04:13:56.232Z,10.93
2019-04-11T04:16:39.853Z,12.40
2019-04-11T04:19:12.784Z,10.70
2019-04-11T04:21:55.350Z,10.97
2019-04-11T04:24:25.107Z,12.57
2019-04-11T04:26:52.639Z,10.20
2019-04-11T04:29:19.916Z,10.97
2019-04-11T04:31:48.958Z,9.53
2019-04-11T04:34:17.397Z,11.80
2019-04-11T04:36:44.603Z,11.77
2019-04-11T04:39:12.450Z,11.80
2019-04-11T04:41:47.396Z,11.50
2019-04-11T04:44:08.569Z,10.90
2019-04-11T04:46:54.853Z,11.60
2019-04-11T04:49:04.768Z,9.83
2019-04-11T04:51:31.892Z,10.93
2019-04-11T04:54:00.148Z,10.37
2019-04-11T04:56:31.068Z,10.47
2019-04-11T04:58:55.977Z,15.60
2019-04-11T05:01:23.786Z,8.97
2019-04-11T05:03:50.940Z,14.00
2019-04-11T05:06:18.634Z,11.83
2019-04-11T05:08:45.362Z,12.60
2019-04-11T05:11:13.833Z,16.70
2019-04-11T05:13:41.262Z,12.93
2019-04-11T05:16:17.269Z,16.50
2019-04-11T05:18:36.702Z,11.93
2019-04-11T05:21:03.236Z,11.77
2019-04-11T05:23:29.867Z,12.20
2019-04-11T05:25:57.146Z,15.13
2019-04-11T05:28:23.575Z,10.40
2019-04-11T05:30:49.821Z,10.23
2019-04-11T05:33:16.235Z,13.73
2019-04-11T05:35:43.708Z,12.00
2019-04-11T05:38:10.424Z,12.23
2019-04-11T05:40:37.735Z,11.27
2019-04-11T05:43:04.114Z,12.60
2019-04-11T05:45:31.727Z,11.00
2019-04-11T05:47:59.046Z,13.57
2019-04-11T05:50:28.351Z,11.90
2019-04-11T05:52:55.124Z,16.17
2019-04-11T05:55:22.005Z,9.33
2019-04-11T05:57:48.243Z,11.60
2019-04-11T06:00:25.184Z,11.73
2019-04-11T06:02:59.729Z,14.17
2019-04-11T06:05:33.036Z,10.73
2019-04-11T06:08:02.333Z,9.33
2019-04-11T06:10:30.820Z,14.63
2019-04-11T06:13:06.376Z,9.13
2019-04-11T06:15:44.328Z,12.53
2019-04-11T06:18:24.178Z,7.63
2019-04-11T06:20:55.677Z,10.23
2019-04-11T06:23:41.361Z,11.20
2019-04-11T06:26:09.229Z,10.10
2019-04-11T06:28:36.186Z,13.63
2019-04-11T06:31:22.036Z,10.00
2019-04-11T06:33:54.035Z,10.80
2019-04-11T06:36:26.629Z,11.93
2019-04-11T06:38:56.648Z,11.73
2019-04-11T06:41:26.223Z,7.33
2019-04-11T06:44:00.595Z,9.87
2019-04-11T06:46:38.929Z,8.50
2019-04-11T06:49:22.431Z,8.53
2019-04-11T06:51:52.575Z,9.27
2019-04-11T06:54:39.261Z,10.90
2019-04-11T06:57:07.695Z,7.50
2019-04-11T06:59:38.718Z,6.47
2019-04-11T07:02:16.417Z,9.53
2019-04-11T07:04:51.964Z,7.07
2019-04-11T07:07:20.484Z,5.80
2019-04-11T07:09:49.211Z,5.67
2019-04-11T07:12:15.713Z,10.30
2019-04-11T07:14:53.003Z,6.00
2019-04-11T07:17:38.606Z,6.47
2019-04-11T07:20:14.086Z,4.53
2019-04-11T07:22:59.479Z,7.07
2019-04-11T07:25:28.872Z,8.07
2019-04-11T07:27:57.321Z,2.97
2019-04-11T07:30:41.984Z,4.67
2019-04-11T07:33:26.917Z,4.30
2019-04-11T07:36:12.409Z,3.43
2019-04-11T07:38:52.875Z,3.40
2019-04-11T07:41:21.638Z,4.20
2019-04-11T07:43:47.979Z,3.07
2019-04-11T07:46:19.068Z,4.93
2019-04-11T07:48:45.360Z,4.83
2019-04-11T07:51:13.539Z,3.17
2019-04-11T07:53:41.126Z,4.30
2019-04-11T07:56:07.810Z,2.60
2019-04-11T07:58:39.828Z,2.90
2019-04-11T08:01:08.358Z,2.97
2019-04-11T08:03:37.928Z,1.90
2019-04-11T08:06:24.290Z,3.13
2019-04-11T08:09:09.626Z,2.90
2019-04-11T08:11:40.067Z,1.30
2019-04-11T08:14:08.483Z,2.07
2019-04-11T08:16:53.577Z,2.27
2019-04-11T08:19:38.640Z,1.73
2019-04-11T08:22:23.541Z,2.90
2019-04-11T08:24:56.585Z,2.50
2019-04-11T08:27:33.932Z,1.70
2019-04-11T08:30:02.545Z,2.03
2019-04-11T08:32:42.882Z,2.47
2019-04-11T08:35:12.257Z,1.23
2019-04-11T08:37:52.320Z,1.20
2019-04-11T08:40:20.504Z,1.37
2019-04-11T08:42:48.725Z,3.03
2019-04-11T08:45:17.548Z,3.60
2019-04-11T08:47:49.218Z,1.40
2019-04-11T08:50:16.385Z,1.27
2019-04-11T08:52:54.211Z,1.20
2019-04-11T08:55:23.131Z,1.60
2019-04-11T08:57:51.910Z,1.90
2019-04-11T09:00:35.755Z,2.47
2019-04-11T09:03:13.468Z,3.00
2019-04-11T09:05:42.849Z,1.20
2019-04-11T09:08:28.049Z,4.10
2019-04-11T09:11:12.893Z,1.00
2019-04-11T09:13:57.820Z,1.97
2019-04-11T09:16:40.000Z,3.57
2019-04-11T09:19:14.686Z,2.83
2019-04-11T09:22:00.451Z,1.20
2019-04-11T09:24:39.072Z,1.20
2019-04-11T09:27:24.809Z,1.40
2019-04-11T09:30:00.326Z,2.23
2019-04-11T09:32:46.469Z,1.13
2019-04-11T09:35:33.131Z,5.57
2019-04-11T09:38:04.589Z,1.77
2019-04-11T09:40:39.582Z,1.07
2019-04-11T09:43:19.915Z,2.23
2019-04-11T09:46:06.136Z,5.33
2019-04-11T09:48:35.707Z,5.60
2019-04-11T09:51:07.359Z,1.13
2019-04-11T09:53:36.632Z,1.97
2019-04-11T09:56:11.175Z,2.63
2019-04-11T09:58:37.909Z,7.83
2019-04-11T10:01:04.301Z,7.60
2019-04-11T10:03:32.489Z,2.13
2019-04-11T10:05:58.811Z,1.13
2019-04-11T10:08:37.192Z,3.73
2019-04-11T10:11:07.899Z,2.67
2019-04-11T10:13:53.260Z,1.40
2019-04-11T10:16:22.650Z,1.77
2019-04-11T10:18:57.788Z,2.90
2019-04-11T10:21:25.958Z,1.70
2019-04-11T10:24:11.429Z,2.50
2019-04-11T10:26:58.485Z,1.73
2019-04-11T10:29:30.148Z,3.27
2019-04-11T10:31:56.902Z,1.43
2019-04-11T10:34:43.867Z,1.37
2019-04-11T10:37:11.843Z,1.93
2019-04-11T10:39:43.797Z,2.40
2019-04-11T10:42:12.645Z,1.10
2019-04-11T10:44:47.826Z,2.80
2019-04-11T10:47:19.191Z,1.90
2019-04-11T10:49:50.558Z,1.77
2019-04-11T10:52:24.972Z,1.83
2019-04-11T10:55:05.429Z,1.17
2019-04-11T10:57:40.337Z,1.73
2019-04-11T11:00:12.591Z,4.83
2019-04-11T11:02:41.809Z,3.73
2019-04-11T11:05:09.920Z,2.40
2019-04-11T11:07:37.044Z,1.70
2019-04-11T11:10:07.276Z,3.23
2019-04-11T11:12:33.583Z,3.83
2019-04-11T11:15:03.071Z,4.93
2019-04-11T11:17:54.849Z,2.60
2019-04-11T11:20:22.435Z,2.03
2019-04-11T11:22:53.784Z,2.33
2019-04-11T11:25:39.333Z,5.77
2019-04-11T11:28:05.920Z,2.43
2019-04-11T11:30:35.363Z,4.50
2019-04-11T11:33:02.237Z,3.20
2019-04-11T11:35:43.743Z,7.10
2019-04-11T11:38:11.962Z,3.93
2019-04-11T11:40:56.510Z,2.87
2019-04-11T11:43:27.857Z,2.80
2019-04-11T11:45:56.838Z,5.33
2019-04-11T11:48:31.283Z,2.73
2019-04-11T11:50:59.447Z,2.43
2019-04-11T11:53:40.555Z,1.20
2019-04-11T11:56:09.527Z,2.27
2019-04-11T11:58:47.841Z,3.20
2019-04-11T12:01:17.793Z,2.83
2019-04-11T12:03:44.523Z,1.80
2019-04-11T12:06:10.887Z,1.70
2019-04-11T12:08:44.312Z,2.17
2019-04-11T12:11:10.292Z,1.60
2019-04-11T12:13:55.802Z,3.23
2019-04-11T12:16:24.128Z,3.53
2019-04-11T12:19:01.033Z,5.97
2019-04-11T12:21:30.984Z,4.40
2019-04-11T12:24:16.063Z,3.53
2019-04-11T12:26:45.775Z,1.93
2019-04-11T12:29:32.269Z,6.17
2019-04-11T12:32:00.477Z,1.70
2019-04-11T12:34:28.655Z,3.27
2019-04-11T12:36:56.435Z,2.80
2019-04-11T12:39:36.720Z,3.67
2019-04-11T12:42:04.885Z,2.90
2019-04-11T12:44:33.066Z,2.30
2019-04-11T12:47:13.606Z,5.30
2019-04-11T12:49:39.875Z,2.30
2019-04-11T12:52:24.818Z,2.10
2019-04-11T12:54:54.949Z,4.27
2019-04-11T12:57:40.173Z,3.37
2019-04-11T13:00:15.369Z,2.63
2019-04-11T13:03:00.117Z,3.17
2019-04-11T13:05:27.299Z,1.73
2019-04-11T13:08:04.324Z,3.27
2019-04-11T13:10:30.607Z,3.07
2019-04-11T13:13:04.947Z,1.97
2019-04-11T13:15:33.133Z,3.97
2019-04-11T13:18:10.458Z,3.33
2019-04-11T13:20:38.844Z,3.17
2019-04-11T13:23:07.016Z,1.90
2019-04-11T13:25:51.716Z,2.87
2019-04-11T13:28:18.252Z,4.83
2019-04-11T13:30:57.617Z,3.07
2019-04-11T13:33:23.596Z,3.77
2019-04-11T13:35:51.755Z,1.97
2019-04-11T13:38:19.941Z,3.00
2019-04-11T13:40:46.305Z,4.20
2019-04-11T13:43:26.492Z,5.50
2019-04-11T13:46:00.883Z,2.10
2019-04-11T13:48:45.693Z,2.10
2019-04-11T13:51:25.971Z,2.87
2019-04-11T13:54:11.030Z,3.47
2019-04-11T13:56:41.862Z,2.40
2019-04-11T13:59:10.019Z,2.63
2019-04-11T14:01:38.194Z,2.83
2019-04-11T14:04:12.103Z,4.87
2019-04-11T14:06:53.119Z,3.40
2019-04-11T14:09:30.499Z,1.70
2019-04-11T14:11:55.288Z,2.40
2019-04-11T14:14:23.432Z,1.90
2019-04-11T14:17:00.601Z,3.80
2019-04-11T14:19:34.737Z,2.53
2019-04-11T14:22:01.268Z,2.37
2019-04-11T14:24:29.456Z,2.90
2019-04-11T14:27:00.436Z,2.10
2019-04-11T14:29:28.596Z,2.90
2019-04-11T14:31:57.072Z,3.13
2019-04-11T14:34:25.233Z,2.73
2019-04-11T14:37:00.292Z,4.70
2019-04-11T14:39:40.227Z,3.73
2019-04-11T14:42:20.479Z,4.53
2019-04-11T14:44:48.463Z,4.13
2019-04-11T14:47:34.770Z,7.77
2019-04-11T14:50:03.018Z,5.13
2019-04-11T14:52:46.783Z,2.10
2019-04-11T14:55:13.516Z,3.03
2019-04-11T14:57:41.675Z,8.13
2019-04-11T15:00:18.707Z,3.77
2019-04-11T15:02:46.864Z,2.63
2019-04-11T15:05:15.036Z,7.70
2019-04-11T15:07:46.836Z,4.40
2019-04-11T15:10:32.990Z,6.93
2019-04-11T15:12:59.252Z,6.90
2019-04-11T15:15:30.231Z,4.07
2019-04-11T15:17:58.418Z,3.37
2019-04-11T15:20:29.481Z,6.30
2019-04-11T15:23:08.379Z,5.07
2019-04-11T15:25:43.678Z,3.63
2019-04-11T15:28:12.388Z,2.80
2019-04-11T15:30:59.469Z,2.53
2019-04-11T15:33:43.022Z,2.03
2019-04-11T15:36:11.210Z,3.73
2019-04-11T15:38:39.358Z,1.50
2019-04-11T15:41:07.549Z,3.07
2019-04-11T15:43:52.370Z,5.13
2019-04-11T15:46:20.547Z,2.97
2019-04-11T15:48:46.817Z,3.27
2019-04-11T15:51:14.988Z,6.83
2019-04-11T15:53:43.919Z,2.63
2019-04-11T15:56:28.953Z,1.90
2019-04-11T15:59:07.149Z,3.87
2019-04-11T16:01:48.594Z,3.27
2019-04-11T16:04:26.858Z,1.93
2019-04-11T16:07:11.731Z,6.20
2019-04-11T16:09:39.899Z,3.17
2019-04-11T16:12:25.238Z,3.07
2019-04-11T16:15:10.148Z,2.97
2019-04-11T16:17:36.408Z,1.70
2019-04-11T16:20:04.891Z,4.00
2019-04-11T16:22:33.132Z,2.90
2019-04-11T16:25:04.299Z,5.23
2019-04-11T16:27:34.284Z,6.53
2019-04-11T16:30:11.443Z,6.10
2019-04-11T16:32:39.625Z,10.57
2019-04-11T16:35:05.929Z,5.20
2019-04-11T16:37:32.472Z,8.60
2019-04-11T16:40:17.442Z,5.83
2019-04-11T16:42:44.586Z,9.63
2019-04-11T16:45:20.044Z,9.33
2019-04-11T16:47:53.741Z,10.20
2019-04-11T16:50:19.739Z,8.93
2019-04-11T16:52:45.983Z,9.97
2019-04-11T16:55:12.233Z,11.47
2019-04-11T16:57:38.503Z,11.13
2019-04-11T17:00:09.149Z,12.17
2019-04-11T17:02:35.579Z,11.80
2019-04-11T17:05:05.548Z,13.50
2019-04-11T17:07:33.764Z,17.10
2019-04-11T17:10:01.735Z,14.00
2019-04-11T17:12:27.972Z,13.27
2019-04-11T17:14:54.223Z,13.30
2019-04-11T17:17:20.497Z,16.83
2019-04-11T17:19:46.770Z,12.93
2019-04-11T17:22:13.037Z,15.27
2019-04-11T17:24:39.322Z,12.77
2019-04-11T17:27:05.965Z,17.03
2019-04-11T17:29:32.223Z,13.37
2019-04-11T17:31:58.485Z,13.70
2019-04-11T17:34:24.734Z,13.03
2019-04-11T17:36:50.977Z,17.00
2019-04-11T17:39:17.277Z,11.73
2019-04-11T17:41:43.548Z,7.93
2019-04-11T17:44:10.087Z,12.13
2019-04-11T17:46:36.326Z,12.17
2019-04-11T17:49:02.637Z,7.23
2019-04-11T17:51:28.883Z,10.53
2019-04-11T17:53:55.708Z,11.23
2019-04-11T17:56:24.784Z,7.83
2019-04-11T17:58:50.193Z,11.23
2019-04-11T18:01:16.443Z,10.27
2019-04-11T18:03:42.795Z,7.63
2019-04-11T18:06:09.061Z,8.27
2019-04-11T18:08:35.337Z,8.90
2019-04-11T18:11:01.612Z,6.13
2019-04-11T18:13:30.629Z,7.53
2019-04-11T18:15:56.063Z,7.57
2019-04-11T18:18:22.303Z,8.07
2019-04-11T18:20:48.602Z,14.93
2019-04-11T18:23:14.845Z,8.27
2019-04-11T18:25:41.087Z,12.47
2019-04-11T18:28:08.036Z,9.00
2019-04-11T18:30:34.311Z,14.93
2019-04-11T18:33:00.576Z,9.30
2019-04-11T18:35:27.017Z,11.17
2019-04-11T18:37:53.263Z,10.53
2019-04-11T18:40:19.549Z,9.70
2019-04-11T18:42:45.841Z,10.37
2019-04-11T18:45:12.113Z,9.67
2019-04-11T18:47:38.395Z,10.00
2019-04-11T18:50:05.495Z,10.37
2019-04-11T18:52:31.771Z,11.20
2019-04-11T18:54:58.056Z,10.67
2019-04-11T18:57:25.069Z,13.27
2019-04-11T18:59:51.559Z,8.90
2019-04-11T19:02:17.837Z,9.67
2019-04-11T19:04:44.080Z,10.07
2019-04-11T19:07:12.742Z,14.40
2019-04-11T19:09:38.638Z,10.87
2019-04-11T19:12:05.808Z,8.80
2019-04-11T19:14:32.233Z,9.43
2019-04-11T19:16:58.745Z,10.20
2019-04-11T19:19:27.376Z,10.73
2019-04-11T19:21:59.236Z,9.63
2019-04-11T19:24:35.103Z,8.67
2019-04-11T19:26:53.708Z,10.37
2019-04-11T19:29:20.039Z,9.43
2019-04-11T19:31:46.276Z,6.57
2019-04-11T19:34:12.553Z,9.87
2019-04-11T19:36:39.813Z,9.23
2019-04-11T19:39:07.092Z,9.30
2019-04-11T19:41:33.407Z,10.10
2019-04-11T19:43:59.641Z,9.00
2019-04-11T19:46:25.931Z,11.10
2019-04-11T19:48:55.413Z,10.83
2019-04-11T19:51:20.420Z,9.97
2019-04-11T19:53:46.678Z,11.20
2019-04-11T19:56:23.853Z,12.70
2019-04-11T19:58:50.104Z,10.43
2019-04-11T20:01:16.424Z,9.20
2019-04-11T20:03:42.702Z,15.77
2019-04-11T20:06:08.945Z,16.13
2019-04-11T20:08:35.305Z,11.77
2019-04-11T20:11:01.990Z,11.50
2019-04-11T20:13:31.963Z,14.43
2019-04-11T20:15:56.519Z,13.00
2019-04-11T20:18:23.326Z,12.73
2019-04-11T20:20:52.111Z,9.97
2019-04-11T20:23:17.777Z,12.47
2019-04-11T20:25:47.887Z,11.93
2019-04-11T20:28:12.209Z,8.03
2019-04-11T20:30:38.472Z,7.07
2019-04-11T20:33:04.710Z,8.50
2019-04-11T20:35:30.987Z,9.70
2019-04-11T20:37:57.521Z,7.73
2019-04-11T20:40:24.040Z,8.70
2019-04-11T20:42:53.930Z,7.33
2019-04-11T20:45:18.468Z,8.80
2019-04-11T20:47:44.772Z,9.20
2019-04-11T20:50:11.069Z,6.70
2019-04-11T20:52:37.333Z,6.83
2019-04-11T20:55:08.918Z,7.10
2019-04-11T20:57:33.319Z,7.60
2019-04-11T20:59:59.623Z,9.17
2019-04-11T21:02:28.211Z,6.73
2019-04-11T21:04:54.017Z,6.60
2019-04-11T21:07:20.280Z,6.63
2019-04-11T21:09:46.572Z,6.23
2019-04-11T21:12:12.819Z,5.73
2019-04-11T21:14:39.337Z,6.05
2019-04-11T21:17:05.575Z,6.50
2019-04-11T21:19:31.859Z,8.10
2019-04-11T21:21:58.104Z,5.20
2019-04-11T21:24:24.598Z,4.93
2019-04-11T21:26:50.868Z,6.97
2019-04-11T21:29:17.147Z,4.67
2019-04-11T21:31:43.381Z,5.70
2019-04-11T21:34:09.652Z,5.40
2019-04-11T21:36:35.938Z,6.67
2019-04-11T21:39:05.419Z,6.60
2019-04-11T21:41:31.676Z,6.27
2019-04-11T21:43:57.929Z,5.37
2019-04-11T21:46:24.225Z,6.77
2019-04-11T21:48:50.505Z,4.53
2019-04-11T21:51:16.786Z,4.73
2019-04-11T21:53:45.295Z,7.93
2019-04-11T21:56:11.284Z,7.53
2019-04-11T21:58:37.585Z,6.43
2019-04-11T22:01:08.537Z,7.10
2019-04-11T22:03:35.176Z,6.63
2019-04-11T22:06:01.486Z,7.03
2019-04-11T22:08:28.021Z,8.30
2019-04-11T22:10:54.262Z,7.07
2019-04-11T22:13:20.536Z,6.07
2019-04-11T22:15:47.067Z,7.43
2019-04-11T22:18:16.804Z,7.70
2019-04-11T22:20:41.620Z,6.00
2019-04-11T22:23:07.861Z,4.73
2019-04-11T22:25:34.149Z,6.03
2019-04-11T22:28:00.436Z,7.47
2019-04-11T22:30:26.678Z,8.13
2019-04-11T22:32:58.038Z,9.53
2019-04-11T22:35:28.574Z,6.93
2019-04-11T22:37:52.813Z,6.87
2019-04-11T22:40:19.192Z,8.10
2019-04-11T22:42:45.461Z,8.33
2019-04-11T22:45:11.751Z,7.60
2019-04-11T22:47:38.410Z,7.00
2019-04-11T22:50:05.293Z,8.77
2019-04-11T22:52:31.509Z,8.50
2019-04-11T22:54:58.043Z,9.30
2019-04-11T22:57:24.308Z,10.83
2019-04-11T22:59:50.573Z,10.17
2019-04-11T23:02:18.721Z,7.93
2019-04-11T23:04:46.971Z,8.40
2019-04-11T23:07:15.028Z,7.23
2019-04-11T23:09:41.317Z,8.90
2019-04-11T23:12:07.564Z,9.23
2019-04-11T23:14:33.808Z,8.70
2019-04-11T23:17:00.071Z,10.43
2019-04-11T23:19:26.344Z,11.20
2019-04-11T23:21:52.679Z,9.37
2019-04-11T23:24:18.953Z,9.50
2019-04-11T23:26:45.206Z,9.13
2019-04-11T23:29:11.477Z,10.23
2019-04-11T23:31:37.716Z,11.27
2019-04-11T23:34:04.069Z,11.17
2019-04-11T23:36:30.346Z,10.50
2019-04-11T23:38:56.604Z,9.10
2019-04-11T23:41:22.844Z,9.00
2019-04-11T23:43:50.026Z,11.03
2019-04-11T23:46:18.958Z,12.43
2019-04-11T23:48:44.929Z,8.73
2019-04-11T23:51:11.226Z,9.60
2019-04-11T23:53:37.594Z,10.83
2019-04-11T23:56:03.867Z,11.60
2019-04-11T23:58:32.123Z,11.37
